Time;durP1;ratioP1;P1;durP2;ratioP2;P2;SDS_P1;SDS_P2;PMS_P1;PMS_P2;Temp;Humidity;BMP_temperature;BMP_pressure;BME280_temperature;BME280_humidity;BME280_pressure;Samples;Min_cycle;Max_cycle;Signal;HPM_P1;HPM_P2
2022/01/23 00:01:44;;;;;;;;;11.25;10.00;;;;;20.67;30.70;103082.84;5077178;28;45537;-50
2022/01/23 00:04:09;;;;;;;;;14.50;12.50;;;;;20.66;31.11;103080.25;5076990;28;45772;-55
2022/01/23 00:06:35;;;;;;;;;11.75;10.00;;;;;20.64;30.73;103077.66;5058740;28;46922;-56
2022/01/23 00:09:00;;;;;;;;;10.00;10.00;;;;;20.64;30.75;103082.91;5076562;28;45351;-50
2022/01/23 00:11:28;;;;;;;;;11.00;11.00;;;;;20.62;30.63;103079.44;5058082;27;45439;-55
2022/01/23 00:19:05;;;;;;;;;8.75;8.75;;;;;20.57;30.50;103078.66;5076906;28;45334;-53
2022/01/23 00:21:33;;;;;;;;;11.75;10.50;;;;;20.57;31.00;103080.44;5076634;28;45319;-54
2022/01/23 00:31:52;;;;;;;;;11.00;11.00;;;;;20.51;31.31;103065.63;5077430;27;45219;-55
2022/01/23 00:34:17;;;;;;;;;10.00;10.00;;;;;20.49;30.74;103064.78;5080218;27;45238;-54
2022/01/23 00:36:43;;;;;;;;;11.25;9.50;;;;;20.50;30.97;103058.59;5079968;27;46972;-58
2022/01/23 00:39:08;;;;;;;;;11.25;11.25;;;;;20.48;30.92;103056.00;5061999;28;45274;-58
2022/01/23 00:41:34;;;;;;;;;11.25;11.25;;;;;20.50;30.69;103058.59;5080124;28;45258;-54
2022/01/23 00:44:00;;;;;;;;;11.00;9.25;;;;;20.49;30.95;103055.13;5080034;28;45589;-54
2022/01/23 00:46:33;;;;;;;;;9.00;9.00;;;;;20.51;30.84;103052.44;5078899;27;46321;-59
2022/01/23 00:51:27;;;;;;;;;12.00;9.00;;;;;20.58;30.81;103055.81;5079621;27;45412;-52
2022/01/23 00:53:57;;;;;;;;;9.50;9.25;;;;;20.61;31.04;103059.25;5079882;27;45640;-56
2022/01/23 00:56:22;;;;;;;;;9.00;9.00;;;;;20.63;31.31;103046.94;5079416;27;45764;-56
2022/01/23 00:58:48;;;;;;;;;10.00;10.00;;;;;20.69;31.40;103053.84;5079555;28;45253;-58
2022/01/23 01:01:14;;;;;;;;;12.50;11.50;;;;;20.75;30.98;103050.25;5079518;28;45434;-55
2022/01/23 01:03:40;;;;;;;;;8.25;8.25;;;;;20.79;30.59;103038.72;5080087;28;45337;-55
2022/01/23 01:06:05;;;;;;;;;7.50;7.25;;;;;20.80;30.86;103045.72;5079347;28;45330;-57
2022/01/23 01:08:31;;;;;;;;;10.75;10.00;;;;;20.84;30.62;103042.97;5079300;28;45366;-58
2022/01/23 01:11:22;;;;;;;;;8.25;8.25;;;;;20.89;30.86;103040.25;5079130;27;45507;-58
2022/01/23 01:33:02;;;;;;;;;10.00;10.00;;;;;21.04;30.64;103044.34;5079475;27;45493;-57
2022/01/23 01:37:53;;;;;;;;;6.50;6.50;;;;;21.06;30.67;103039.88;5078823;27;45351;-50
2022/01/23 01:40:21;;;;;;;;;8.25;8.25;;;;;21.05;30.97;103032.00;5060612;28;45237;-53
2022/01/23 01:42:47;;;;;;;;;10.50;10.50;;;;;21.07;30.88;103038.97;5078425;28;45449;-55
2022/01/23 01:45:13;;;;;;;;;9.00;6.00;;;;;21.07;30.69;103031.06;5079360;28;45581;-50
2022/01/23 01:47:57;;;;;;;;;9.00;9.00;;;;;21.07;30.31;103027.56;5078965;27;45486;-49
2022/01/23 01:50:23;;;;;;;;;9.25;9.00;;;;;21.07;30.46;103044.25;5078413;27;45369;-52
2022/01/23 01:52:49;;;;;;;;;7.25;7.00;;;;;21.06;30.29;103031.97;5077688;27;45415;-56
2022/01/23 01:55:22;;;;;;;;;9.75;9.75;;;;;21.06;30.59;103034.59;5077779;28;45585;-55
2022/01/23 01:57:53;;;;;;;;;9.25;9.25;;;;;21.07;30.75;103032.84;5078350;28;47163;-59
2022/01/23 02:10:47;;;;;;;;;8.00;8.00;;;;;21.05;30.24;103034.66;5078343;28;45411;-57
2022/01/23 02:13:15;;;;;;;;;9.50;9.00;;;;;21.03;30.31;103036.44;5078735;27;45286;-54
2022/01/23 02:51:10;;;;;;;;;9.00;8.00;;;;;20.86;30.77;103000.78;5077664;27;45682;-56
2022/01/23 02:56:03;;;;;;;;;8.00;8.00;;;;;20.85;30.44;103001.69;5077056;28;45280;-54
2022/01/23 02:58:47;;;;;;;;;7.50;7.50;;;;;20.84;30.87;103002.59;5078078;28;45490;-53
2022/01/23 03:01:17;;;;;;;;;7.00;7.00;;;;;20.82;31.04;102992.09;5077997;28;47158;-54
2022/01/23 03:03:46;;;;;;;;;8.25;7.25;;;;;20.79;30.59;102991.28;5077883;28;45785;-57
2022/01/23 03:25:16;;;;;;;;;10.00;8.25;;;;;20.69;30.86;102980.91;5077395;27;45446;-58
2022/01/23 03:30:29;;;;;;;;;10.50;9.00;;;;;20.63;30.77;102978.41;5077336;28;45366;-53
2022/01/23 03:32:55;;;;;;;;;7.00;7.00;;;;;20.61;30.42;102971.47;5077424;28;46645;-55
2022/01/23 03:35:22;;;;;;;;;9.50;9.00;;;;;20.61;30.66;102976.72;5076263;28;45394;-54
2022/01/23 03:37:48;;;;;;;;;9.00;7.25;;;;;20.58;30.75;102972.38;5077680;28;45333;-57
2022/01/23 03:40:15;;;;;;;;;8.75;7.50;;;;;20.57;30.48;102968.00;5059480;28;45366;-55
2022/01/23 03:42:42;;;;;;;;;9.25;8.75;;;;;20.54;30.60;102963.66;5058860;28;48605;-53
2022/01/23 03:47:52;;;;;;;;;8.50;8.25;;;;;20.51;30.95;102969.00;5077080;27;45283;-50
2022/01/23 03:50:17;;;;;;;;;8.25;7.00;;;;;20.51;30.85;102962.88;5077302;27;45506;-55
2022/01/23 03:52:42;;;;;;;;;11.75;8.00;;;;;20.49;30.97;102972.56;5076883;28;45328;-55
2022/01/23 03:55:08;;;;;;;;;6.75;6.00;;;;;20.48;30.64;102961.19;5076829;28;45425;-57
2022/01/23 03:57:34;;;;;;;;;8.00;8.00;;;;;20.46;30.73;102972.63;5076960;28;45326;-54
2022/01/23 03:59:59;;;;;;;;;7.00;7.00;;;;;20.45;31.17;102965.66;5077155;28;45752;-56
2022/01/23 04:02:37;;;;;;;;;12.25;9.25;;;;;20.45;30.66;102960.38;5076778;27;46584;-57
2022/01/23 04:05:02;;;;;;;;;8.00;8.00;;;;;20.44;31.18;102959.50;5076963;27;45374;-50
2022/01/23 04:07:29;;;;;;;;;9.50;8.25;;;;;20.41;31.13;102959.56;5076319;27;45441;-52
2022/01/23 04:09:54;;;;;;;;;9.25;8.00;;;;;20.43;30.85;102954.28;5058364;28;45641;-58
2022/01/23 04:15:13;;;;;;;;;7.75;7.75;;;;;20.50;30.74;102953.22;5076520;28;45231;-53
2022/01/23 05:01:21;;;;;;;;;10.00;7.25;;;;;21.00;30.57;102958.28;5076056;28;45237;-56
2022/01/23 05:06:37;;;;;;;;;5.50;5.50;;;;;21.01;30.48;102966.16;5075903;28;45950;-54
2022/01/23 05:09:03;;;;;;;;;7.00;7.00;;;;;21.01;30.18;102966.16;5075671;27;45933;-54
2022/01/23 05:11:28;;;;;;;;;9.00;7.00;;;;;21.04;30.22;102974.91;5075545;28;45331;-48
2022/01/23 05:13:53;;;;;;;;;6.75;6.75;;;;;21.04;30.40;102969.63;5076386;28;45379;-53
2022/01/23 05:16:19;;;;;;;;;5.25;5.25;;;;;21.04;30.62;102970.50;5076005;28;46555;-50
2022/01/23 05:18:45;;;;;;;;;6.25;6.25;;;;;21.02;30.52;102961.78;5078094;27;45820;-53
2022/01/23 05:23:42;;;;;;;;;6.75;6.00;;;;;21.03;30.60;102960.88;5079410;28;45383;-49
2022/01/23 05:26:07;;;;;;;;;8.00;6.50;;;;;21.03;30.50;102973.16;5078056;28;45505;-50
2022/01/23 05:28:33;;;;;;;;;8.75;8.00;;;;;21.03;30.43;102967.91;5079071;28;45455;-49
2022/01/23 05:30:58;;;;;;;;;8.00;7.00;;;;;21.03;30.61;102979.31;5079111;28;45360;-48
2022/01/23 05:33:23;;;;;;;;;6.00;6.00;;;;;21.02;30.61;102977.59;5079540;27;45351;-48
2022/01/23 05:35:49;;;;;;;;;5.25;5.25;;;;;21.00;30.61;102974.97;5078798;28;47368;-51
2022/01/23 05:38:14;;;;;;;;;9.00;8.00;;;;;21.00;30.55;102963.56;5060607;28;45409;-48
2022/01/23 05:40:40;;;;;;;;;5.75;4.75;;;;;20.99;30.01;102973.25;5079282;28;45452;-54
2022/01/23 05:43:06;;;;;;;;;5.50;5.00;;;;;20.99;30.31;102969.75;5079056;27;45473;-55
2022/01/23 05:45:32;;;;;;;;;8.75;8.00;;;;;20.97;30.33;102967.16;5078661;27;45641;-51
2022/01/23 05:47:57;;;;;;;;;5.25;5.25;;;;;20.97;30.20;102974.19;5078618;27;45348;-52
2022/01/23 05:50:22;;;;;;;;;7.00;6.00;;;;;20.96;30.21;102973.31;5079206;28;45162;-52
2022/01/23 05:52:48;;;;;;;;;6.00;6.00;;;;;20.95;30.46;102971.59;5078873;27;45327;-55
2022/01/23 05:55:15;;;;;;;;;6.00;6.00;;;;;20.95;30.73;102976.84;5060279;27;47196;-56
2022/01/23 05:57:40;;;;;;;;;5.50;5.50;;;;;20.94;30.55;102969.84;5078819;27;45893;-57
2022/01/23 06:00:06;;;;;;;;;6.75;5.00;;;;;20.94;30.38;102975.13;5078879;28;45473;-53
2022/01/23 06:02:31;;;;;;;;;7.00;6.00;;;;;20.92;30.65;102971.66;5078851;27;45307;-55
2022/01/23 06:04:57;;;;;;;;;6.00;6.00;;;;;20.92;30.46;102976.06;5078454;27;45446;-56
2022/01/23 06:07:22;;;;;;;;;8.75;5.25;;;;;20.89;30.39;102974.34;5078768;27;45355;-57
2022/01/23 06:09:47;;;;;;;;;7.25;5.50;;;;;20.89;30.71;102976.13;5078423;28;45349;-58
2022/01/23 06:12:13;;;;;;;;;7.00;6.25;;;;;20.86;30.47;102977.06;5060484;28;45600;-56
2022/01/23 06:14:38;;;;;;;;;5.75;5.75;;;;;20.85;30.24;102980.63;5078261;28;46243;-54
2022/01/23 06:17:04;;;;;;;;;7.25;7.25;;;;;20.85;30.35;102975.34;5078392;28;45326;-50
2022/01/23 06:19:29;;;;;;;;;6.50;6.25;;;;;20.83;30.43;102978.03;5078437;28;45264;-50
2022/01/23 06:21:54;;;;;;;;;6.50;5.50;;;;;20.83;30.24;102983.28;5078645;27;45668;-56
2022/01/23 06:24:28;;;;;;;;;7.00;7.00;;;;;20.81;30.58;102976.28;5060007;28;47008;-52
2022/01/23 06:26:57;;;;;;;;;5.25;5.00;;;;;20.80;30.59;102977.19;5078271;28;45379;-53
2022/01/23 06:29:24;;;;;;;;;6.00;6.00;;;;;20.79;30.47;102972.81;5060411;28;45426;-54
2022/01/23 06:31:53;;;;;;;;;4.75;4.75;;;;;20.74;30.62;102967.66;5078446;28;45580;-57
2022/01/23 06:34:19;;;;;;;;;7.00;7.00;;;;;20.76;30.21;102976.41;5078050;28;46719;-56
2022/01/23 06:36:45;;;;;;;;;9.50;8.50;;;;;20.75;30.13;102973.81;5077965;27;45421;-55
2022/01/23 06:39:13;;;;;;;;;7.50;7.50;;;;;20.73;30.25;102981.69;5078085;27;45384;-53
2022/01/23 06:41:39;;;;;;;;;7.00;7.00;;;;;20.72;30.42;102981.75;5078263;28;45490;-54
2022/01/23 06:44:06;;;;;;;;;6.25;5.50;;;;;20.68;30.19;102976.53;5059722;28;46253;-52
2022/01/23 06:46:33;;;;;;;;;5.75;5.00;;;;;20.68;30.31;102973.91;5077822;28;45402;-49
2022/01/23 06:48:58;;;;;;;;;6.00;6.00;;;;;20.65;30.23;102971.34;5077926;27;45367;-52
2022/01/23 06:51:24;;;;;;;;;6.25;5.25;;;;;20.66;30.70;102974.84;5078289;27;45298;-57
2022/01/23 06:53:49;;;;;;;;;6.00;5.50;;;;;20.64;30.34;102977.53;5077634;28;46387;-54
2022/01/23 06:56:15;;;;;;;;;6.00;6.00;;;;;20.62;30.79;102975.81;5077826;27;45386;-58
2022/01/23 06:58:40;;;;;;;;;7.75;5.75;;;;;20.59;30.51;102974.09;5077842;28;45296;-58
2022/01/23 07:01:07;;;;;;;;;6.00;5.25;;;;;20.57;30.39;102986.44;5078025;28;45425;-56
2022/01/23 07:03:34;;;;;;;;;5.75;5.75;;;;;20.57;30.59;102991.72;5077428;27;45517;-57
2022/01/23 07:06:00;;;;;;;;;8.25;6.00;;;;;20.54;30.46;102992.66;5077693;28;45390;-53
2022/01/23 07:08:25;;;;;;;;;3.00;3.00;;;;;20.47;30.51;102984.91;5077991;28;45349;-54
2022/01/23 07:10:51;;;;;;;;;6.50;6.50;;;;;20.48;30.66;102990.16;5077643;27;45495;-55
2022/01/23 07:13:16;;;;;;;;;6.50;6.50;;;;;20.47;30.57;102984.91;5077449;27;45604;-57
2022/01/23 07:15:41;;;;;;;;;4.00;4.00;;;;;20.47;30.75;102980.53;5059372;28;45295;-58
2022/01/23 07:18:07;;;;;;;;;4.00;4.00;;;;;20.45;30.25;102987.56;5059308;28;45597;-51
2022/01/23 07:20:32;;;;;;;;;4.25;4.25;;;;;20.46;30.44;102996.34;5077557;28;45514;-50
2022/01/23 07:22:57;;;;;;;;;4.25;4.25;;;;;20.44;30.30;102990.25;5077518;27;46236;-49
2022/01/23 07:25:23;;;;;;;;;6.50;6.50;;;;;20.49;30.84;102991.00;5077319;28;45376;-56
2022/01/23 07:27:52;;;;;;;;;7.25;4.75;;;;;20.49;30.92;102994.53;5077438;28;45427;-49
2022/01/23 07:30:28;;;;;;;;;5.75;4.75;;;;;20.53;30.69;102990.91;5077355;28;45665;-48
2022/01/23 07:32:53;;;;;;;;;6.50;5.25;;;;;20.55;30.63;102999.66;5077150;28;45419;-48
2022/01/23 07:35:19;;;;;;;;;7.00;6.00;;;;;20.60;30.40;102996.91;5077096;28;45403;-47
2022/01/23 07:37:44;;;;;;;;;5.25;5.25;;;;;20.63;30.89;102991.59;5077235;27;45252;-50
2022/01/23 07:40:10;;;;;;;;;4.50;3.50;;;;;20.68;30.70;102997.63;5076962;28;45584;-53
2022/01/23 07:42:36;;;;;;;;;5.00;5.00;;;;;20.71;30.38;102991.44;5058798;28;46081;-47
2022/01/23 07:45:03;;;;;;;;;4.25;3.50;;;;;20.75;30.10;102981.72;5076925;27;45409;-47
2022/01/23 07:47:29;;;;;;;;;4.50;3.75;;;;;20.79;30.36;102986.88;5077350;28;45446;-47
2022/01/23 07:49:54;;;;;;;;;3.75;3.75;;;;;20.83;30.41;102982.41;5077268;28;45655;-54
2022/01/23 07:52:19;;;;;;;;;4.75;4.00;;;;;20.87;30.24;102988.47;5076703;27;46403;-52
2022/01/23 07:54:45;;;;;;;;;6.25;4.00;;;;;20.89;30.03;102990.16;5077062;28;45431;-51
2022/01/23 07:57:11;;;;;;;;;3.50;3.50;;;;;20.91;30.50;102985.72;5077051;28;45294;-49
2022/01/23 07:59:37;;;;;;;;;5.00;4.00;;;;;20.94;30.17;102993.56;5077009;28;45488;-52
2022/01/23 08:02:03;;;;;;;;;4.00;3.25;;;;;20.96;30.39;102998.81;5076415;27;46812;-53
2022/01/23 08:04:28;;;;;;;;;5.25;4.50;;;;;20.95;30.35;103008.50;5077066;28;45353;-55
2022/01/23 08:07:08;;;;;;;;;4.25;4.00;;;;;20.96;30.17;103015.50;5076822;28;45176;-51
2022/01/23 08:09:33;;;;;;;;;6.00;4.00;;;;;20.98;30.38;103020.72;5076690;28;45430;-49
2022/01/23 08:11:59;;;;;;;;;4.50;3.75;;;;;21.00;29.99;103025.06;5058586;28;48153;-56
2022/01/23 08:14:24;;;;;;;;;7.00;5.00;;;;;20.99;29.83;103014.56;5076623;28;45359;-56
2022/01/23 08:16:49;;;;;;;;;4.75;4.00;;;;;21.00;30.27;103026.84;5076621;28;45401;-52
2022/01/23 08:19:15;;;;;;;;;4.75;4.75;;;;;21.00;30.29;103027.69;5058484;28;45309;-57
2022/01/23 08:21:40;;;;;;;;;4.00;4.00;;;;;21.01;30.12;103021.53;5076443;28;46044;-59
2022/01/23 08:24:05;;;;;;;;;4.00;4.00;;;;;21.04;30.33;103027.63;5076348;28;45248;-58
2022/01/23 08:26:31;;;;;;;;;4.00;4.00;;;;;21.01;30.37;103024.16;5076971;28;45205;-57
2022/01/23 08:28:56;;;;;;;;;3.75;3.50;;;;;21.04;29.68;103038.19;5076721;27;45336;-58
2022/01/23 08:31:22;;;;;;;;;3.50;3.50;;;;;21.03;29.77;103032.06;5076168;27;46341;-58
2022/01/23 08:33:47;;;;;;;;;5.50;5.50;;;;;21.04;29.92;103027.63;5076105;28;45422;-59
2022/01/23 08:36:13;;;;;;;;;3.75;3.75;;;;;21.03;29.71;103033.81;5076368;28;45244;-58
2022/01/23 08:38:38;;;;;;;;;5.25;5.25;;;;;21.00;29.90;103032.97;5076624;28;45399;-58
2022/01/23 08:43:48;;;;;;;;;5.25;5.25;;;;;20.99;29.65;103031.25;5076190;28;45927;-58
2022/01/23 08:46:14;;;;;;;;;5.00;4.00;;;;;21.00;29.91;103032.97;5075173;28;45323;-58
2022/01/23 08:48:41;;;;;;;;;1.00;1.00;;;;;20.99;29.99;103030.38;5076478;28;45244;-51
2022/01/23 08:51:07;;;;;;;;;3.25;3.25;;;;;20.98;30.00;103021.63;5075966;28;45377;-54
2022/01/23 08:53:32;;;;;;;;;3.50;3.50;;;;;20.98;30.12;103026.88;5078251;28;45358;-50
2022/01/23 08:55:58;;;;;;;;;3.25;3.25;;;;;20.97;30.07;103026.91;5079697;27;45369;-52
2022/01/23 08:58:23;;;;;;;;;2.75;2.75;;;;;20.97;29.81;103030.41;5079838;27;45435;-47
2022/01/23 09:00:48;;;;;;;;;5.00;5.00;;;;;20.95;30.27;103033.97;5079460;27;45387;-48
2022/01/23 09:03:14;;;;;;;;;3.00;3.00;;;;;20.95;30.09;103032.22;5061167;28;46023;-48
2022/01/23 09:05:39;;;;;;;;;3.50;3.50;;;;;20.94;29.80;103035.75;5079654;28;45518;-49
2022/01/23 09:08:05;;;;;;;;;5.75;4.25;;;;;20.93;30.39;103030.53;5078401;28;45507;-51
2022/01/23 09:10:39;;;;;;;;;4.00;4.00;;;;;20.92;30.06;103029.66;5079337;28;46130;-55
2022/01/23 09:15:30;;;;;;;;;3.00;3.00;;;;;20.90;30.39;103036.72;5079690;28;45324;-53
2022/01/23 09:17:56;;;;;;;;;4.00;4.00;;;;;20.88;30.23;103038.53;5079616;28;45511;-57
2022/01/23 09:20:21;;;;;;;;;4.00;4.00;;;;;20.87;30.22;103030.66;5079111;28;46378;-54
2022/01/23 09:22:47;;;;;;;;;4.00;4.00;;;;;20.85;29.76;103020.16;5079240;28;45365;-57
2022/01/23 09:25:12;;;;;;;;;5.00;5.00;;;;;20.84;30.08;103028.94;5079270;28;45335;-54
2022/01/23 09:27:39;;;;;;;;;4.00;4.00;;;;;20.84;30.21;103031.59;5079302;27;45281;-56
2022/01/23 09:30:16;;;;;;;;;4.00;4.00;;;;;20.83;29.95;103025.47;5079337;28;45325;-56
2022/01/23 09:32:43;;;;;;;;;3.50;3.50;;;;;20.80;29.77;103038.69;5078704;27;45889;-57
2022/01/23 09:35:09;;;;;;;;;5.50;3.75;;;;;20.79;30.44;103033.44;5079151;28;45491;-56
2022/01/23 09:37:34;;;;;;;;;4.50;3.00;;;;;20.79;29.92;103033.44;5079583;27;45552;-57
2022/01/23 09:40:00;;;;;;;;;6.50;6.00;;;;;20.76;29.90;103049.34;5078820;28;46009;-57
2022/01/23 09:42:58;;;;;;;;;4.50;3.50;;;;;20.74;30.40;103044.09;5078885;28;45832;-54
2022/01/23 09:45:25;;;;;;;;;6.00;4.75;;;;;20.73;29.89;103039.69;5063118;28;45209;-58
2022/01/23 09:47:53;;;;;;;;;7.25;4.75;;;;;20.72;30.02;103059.06;5079100;27;45562;-54
2022/01/23 09:50:20;;;;;;;;;5.25;3.50;;;;;20.70;29.75;103042.41;5078665;27;45586;-57
2022/01/23 09:52:45;;;;;;;;;3.25;3.25;;;;;20.69;30.35;103053.84;5078804;27;45742;-57
2022/01/23 09:55:12;;;;;;;;;5.25;5.25;;;;;20.65;30.31;103037.22;5078651;28;45304;-57
2022/01/23 09:57:41;;;;;;;;;4.50;3.75;;;;;20.65;29.85;103031.97;5078837;28;45454;-54
2022/01/23 10:00:16;;;;;;;;;4.00;4.00;;;;;20.63;30.19;103031.13;5078717;27;46510;-58
2022/01/23 10:02:43;;;;;;;;;7.00;4.00;;;;;20.62;30.47;103042.56;5078476;28;45429;-54
2022/01/23 10:05:08;;;;;;;;;3.75;3.75;;;;;20.60;30.22;103033.81;5078255;27;45357;-54
2022/01/23 10:07:39;;;;;;;;;3.50;3.50;;;;;20.53;29.96;103037.47;5077746;27;45616;-57
2022/01/23 10:10:10;;;;;;;;;4.50;4.25;;;;;20.56;30.41;103045.28;5078569;28;45291;-57
2022/01/23 10:12:46;;;;;;;;;5.00;3.25;;;;;20.53;29.76;103046.25;5078693;27;45563;-55
2022/01/23 10:15:11;;;;;;;;;5.25;4.00;;;;;20.51;30.23;103042.75;5078604;27;45304;-55
2022/01/23 10:17:38;;;;;;;;;3.50;3.50;;;;;20.49;30.24;103044.59;5079009;27;45254;-51
2022/01/23 10:20:06;;;;;;;;;4.75;3.00;;;;;20.49;30.12;103052.47;5078526;28;45342;-54
2022/01/23 10:22:33;;;;;;;;;3.50;3.50;;;;;20.47;30.10;103045.50;5078281;28;45932;-55
2022/01/23 10:25:14;;;;;;;;;3.50;3.50;;;;;20.46;30.42;103054.28;5078535;27;45363;-57
2022/01/23 10:28:04;;;;;;;;;3.00;2.00;;;;;20.44;30.35;103037.66;5078510;27;45601;-53
2022/01/23 10:30:40;;;;;;;;;2.00;2.00;;;;;20.41;30.01;103043.84;5078115;27;45491;-58
2022/01/23 10:33:11;;;;;;;;;4.25;3.00;;;;;20.42;30.44;103044.72;5078575;27;45301;-59
2022/01/23 10:36:17;;;;;;;;;1.00;1.00;;;;;20.42;30.29;103045.59;5077226;28;45396;-56
2022/01/23 10:39:00;;;;;;;;;1.00;1.00;;;;;20.46;30.52;103043.75;5078328;28;45393;-55
2022/01/23 10:42:01;;;;;;;;;1.25;1.00;;;;;20.50;30.26;103042.81;5077724;27;45390;-54
2022/01/23 10:49:48;;;;;;;;;3.00;3.00;;;;;20.61;30.07;103030.28;5078159;28;45257;-57
2022/01/23 10:52:35;;;;;;;;;3.50;3.50;;;;;20.66;30.49;103038.09;5077516;28;46209;-58
2022/01/23 10:55:26;;;;;;;;;4.00;4.00;;;;;20.68;29.95;103037.13;5059242;28;46001;-58
2022/01/23 10:57:54;;;;;;;;;4.75;3.00;;;;;20.73;29.78;103033.56;5077440;27;45292;-59
2022/01/23 11:00:28;;;;;;;;;2.25;2.25;;;;;20.74;29.66;103027.38;5078145;27;45730;-59
2022/01/23 11:02:57;;;;;;;;;3.00;3.00;;;;;20.80;30.19;103032.53;5077378;28;46160;-58
2022/01/23 11:05:39;;;;;;;;;6.00;2.50;;;;;20.81;30.01;103029.91;5077344;27;45481;-57
2022/01/23 11:08:19;;;;;;;;;4.50;4.50;;;;;20.84;30.08;103021.03;5077671;28;45186;-59
2022/01/23 11:11:00;;;;;;;;;3.50;2.00;;;;;20.85;29.71;103026.28;5077363;28;45570;-57
2022/01/23 11:19:25;;;;;;;;;3.50;3.50;;;;;20.89;30.02;103024.44;5077420;28;45311;-58
2022/01/23 11:21:53;;;;;;;;;2.25;2.25;;;;;20.90;30.09;103013.00;5077840;27;45808;-58
2022/01/23 11:24:22;;;;;;;;;2.50;2.50;;;;;20.91;29.68;103009.44;5077114;28;45413;-57
2022/01/23 11:26:48;;;;;;;;;6.00;3.00;;;;;20.91;29.57;103001.53;5077226;28;45786;-58
2022/01/23 11:29:16;;;;;;;;;3.00;3.00;;;;;20.93;29.48;102998.91;5077334;28;45248;-57
2022/01/23 11:31:43;;;;;;;;;2.50;2.50;;;;;20.93;29.87;102988.34;5077556;28;45549;-56
2022/01/23 11:34:14;;;;;;;;;4.75;4.00;;;;;20.94;29.54;102993.56;5077332;28;46216;-57
2022/01/23 11:36:40;;;;;;;;;2.25;2.25;;;;;20.93;29.82;102988.34;5077430;28;45960;-56
2022/01/23 11:39:17;;;;;;;;;3.25;3.00;;;;;20.92;29.40;102990.09;5077051;27;45359;-57
2022/01/23 11:56:40;;;;;;;;;4.00;3.25;;;;;20.89;29.49;102976.13;5046064;28;45851;-57
2022/01/23 11:59:16;;;;;;;;;2.25;2.25;;;;;20.89;29.68;102971.72;5076590;28;45661;-54
2022/01/23 12:01:44;;;;;;;;;4.00;2.50;;;;;20.88;29.49;102975.28;5077254;28;45374;-57
2022/01/23 12:04:18;;;;;;;;;2.25;2.25;;;;;20.87;29.77;102968.28;5077415;28;45232;-56
2022/01/23 12:07:04;;;;;;;;;3.50;3.25;;;;;20.86;29.58;102963.91;5076750;28;45467;-54
2022/01/23 12:09:29;;;;;;;;;4.00;4.00;;;;;20.85;29.60;102962.16;5061457;28;45745;-56
2022/01/23 12:12:31;;;;;;;;;3.00;3.00;;;;;20.86;29.69;102963.91;5076646;28;45244;-57
2022/01/23 12:18:18;;;;;;;;;2.00;2.00;;;;;20.82;29.53;102949.94;5076002;28;45256;-57
2022/01/23 12:20:46;;;;;;;;;1.75;1.75;;;;;20.82;29.54;102949.03;5058808;28;45816;-53
2022/01/23 12:23:14;;;;;;;;;3.25;1.50;;;;;20.79;30.05;102939.44;5077081;28;45352;-55
2022/01/23 12:25:45;;;;;;;;;2.00;2.00;;;;;20.80;29.48;102942.94;5077096;28;45338;-51
2022/01/23 12:28:31;;;;;;;;;5.00;3.25;;;;;20.76;29.74;102933.38;5061301;28;48414;-55
2022/01/23 12:31:18;;;;;;;;;2.00;2.00;;;;;20.76;29.35;102934.25;5080033;27;45341;-51
2022/01/23 12:33:47;;;;;;;;;2.50;2.50;;;;;20.75;29.54;102931.66;5080555;28;45248;-55
2022/01/23 12:36:13;;;;;;;;;2.25;2.25;;;;;20.75;29.82;102936.91;5080610;28;45533;-51
2022/01/23 12:38:41;;;;;;;;;3.00;3.00;;;;;20.73;29.95;102934.28;5079828;28;45405;-50
2022/01/23 12:41:34;;;;;;;;;3.00;3.00;;;;;20.69;29.83;102914.19;5082114;27;45386;-47
2022/01/23 12:44:09;;;;;;;;;0.25;0.25;;;;;20.69;29.52;102911.53;5076362;28;45637;-49
2022/01/23 12:46:48;;;;;;;;;3.00;2.00;;;;;20.68;29.80;102912.44;5080029;27;45260;-51
2022/01/23 12:49:17;;;;;;;;;4.50;4.50;;;;;20.67;29.96;102908.94;5080027;27;46636;-48
2022/01/23 12:51:43;;;;;;;;;5.75;3.00;;;;;20.65;29.59;102905.47;5061752;28;45864;-57
2022/01/23 12:54:11;;;;;;;;;2.75;2.75;;;;;20.65;29.91;102905.47;5079801;28;45433;-57
2022/01/23 12:56:45;;;;;;;;;3.50;3.50;;;;;20.63;29.85;102902.00;5079939;28;45453;-50
2022/01/23 12:59:20;;;;;;;;;6.25;3.00;;;;;20.61;29.86;102893.28;5079633;27;47205;-52
2022/01/23 13:01:47;;;;;;;;;3.75;3.75;;;;;20.60;30.06;102891.53;5079877;27;45430;-50
2022/01/23 13:04:13;;;;;;;;;3.50;1.25;;;;;20.59;29.53;102896.84;5079790;27;45161;-48
2022/01/23 13:06:53;;;;;;;;;3.50;3.50;;;;;20.55;30.02;102889.00;5079922;27;45504;-52
2022/01/23 13:09:34;;;;;;;;;5.00;4.00;;;;;20.54;29.54;102886.41;5079251;28;46541;-48
2022/01/23 13:12:28;;;;;;;;;4.00;2.75;;;;;20.52;29.96;102880.31;5079203;28;45353;-51
2022/01/23 13:31:37;;;;;;;;;4.75;4.75;;;;;20.34;29.48;102858.75;5078841;28;46007;-57
2022/01/23 13:34:02;;;;;;;;;4.25;3.75;;;;;20.32;30.03;102855.31;5060885;28;45546;-56
2022/01/23 13:36:27;;;;;;;;;4.00;4.00;;;;;20.31;29.76;102853.56;5079358;28;45433;-56
2022/01/23 13:38:55;;;;;;;;;1.50;1.00;;;;;20.31;29.65;102857.94;5078430;28;45541;-58
2022/01/23 13:41:25;;;;;;;;;2.25;2.25;;;;;20.30;29.66;102851.84;5078939;27;47089;-55
2022/01/23 13:52:00;;;;;;;;;5.00;5.00;;;;;20.26;29.95;102838.78;5078612;28;45965;-51
2022/01/23 14:02:20;;;;;;;;;5.00;5.00;;;;;20.24;29.62;102823.88;5078456;28;45279;-55
2022/01/23 14:04:53;;;;;;;;;5.00;5.00;;;;;20.24;29.76;102826.50;5078995;27;45385;-52
2022/01/23 14:07:23;;;;;;;;;4.75;4.50;;;;;20.23;29.94;102826.53;5078422;28;45327;-51
2022/01/23 14:09:49;;;;;;;;;3.75;3.75;;;;;20.20;30.15;102810.81;5078702;27;45525;-54
2022/01/23 14:12:18;;;;;;;;;4.00;4.00;;;;;20.23;30.34;102813.34;5078458;28;46699;-54
2022/01/23 14:14:50;;;;;;;;;7.00;4.75;;;;;20.25;29.68;102808.91;5078858;27;45903;-51
2022/01/23 14:17:16;;;;;;;;;4.00;4.00;;;;;20.29;29.98;102802.69;5078986;28;45488;-55
2022/01/23 14:19:56;;;;;;;;;5.75;4.00;;;;;20.33;29.83;102804.38;5078467;27;45484;-57
2022/01/23 14:22:33;;;;;;;;;5.00;5.00;;;;;20.36;30.04;102811.31;5078323;27;46579;-54
2022/01/23 14:25:09;;;;;;;;;5.00;5.00;;;;;20.41;29.99;102805.94;5078197;27;45706;-58
2022/01/23 14:27:35;;;;;;;;;4.25;4.25;;;;;20.42;30.28;102791.88;5078196;27;45331;-57
2022/01/23 14:30:06;;;;;;;;;5.25;5.00;;;;;20.50;30.18;102811.00;5078443;28;45222;-58
2022/01/23 14:32:43;;;;;;;;;6.50;6.50;;;;;20.54;29.71;102810.03;5077788;28;46369;-58
2022/01/23 14:35:15;;;;;;;;;6.00;5.00;;;;;20.58;30.08;102800.28;5077912;28;45816;-54
2022/01/23 14:37:42;;;;;;;;;6.25;5.00;;;;;20.62;29.69;102800.16;5078138;27;45407;-50
2022/01/23 14:40:08;;;;;;;;;5.00;4.00;;;;;20.65;29.66;102792.19;5078229;27;45203;-53
2022/01/23 14:42:33;;;;;;;;;5.50;4.25;;;;;20.70;29.98;102797.34;5077903;28;46597;-51
2022/01/23 14:45:03;;;;;;;;;4.75;4.75;;;;;20.72;29.70;102794.66;5077715;28;45244;-53
2022/01/23 14:47:39;;;;;;;;;6.75;4.00;;;;;20.73;29.54;102789.34;5078223;28;45394;-55
2022/01/23 14:50:11;;;;;;;;;3.75;2.75;;;;;20.75;29.93;102790.19;5077205;28;45455;-52
2022/01/23 14:52:41;;;;;;;;;4.00;3.25;;;;;20.77;29.50;102782.28;5077463;27;46947;-54
2022/01/23 14:55:08;;;;;;;;;5.25;5.25;;;;;20.77;29.44;102780.50;5077794;28;45306;-53
2022/01/23 14:57:34;;;;;;;;;3.75;3.75;;;;;20.78;29.82;102779.59;5077897;28;45327;-56
2022/01/23 15:00:00;;;;;;;;;4.50;4.50;;;;;20.79;29.92;102781.31;5077909;28;45256;-49
2022/01/23 15:02:26;;;;;;;;;4.00;4.00;;;;;20.80;29.84;102790.09;5077613;28;46744;-57
2022/01/23 15:04:52;;;;;;;;;5.25;4.50;;;;;20.81;29.68;102783.91;5077507;27;45417;-54
2022/01/23 15:07:18;;;;;;;;;4.00;4.00;;;;;20.83;29.17;102790.00;5078083;28;45344;-56
2022/01/23 15:09:47;;;;;;;;;8.00;7.00;;;;;20.82;29.01;102785.66;5077635;28;45601;-57
2022/01/23 15:12:14;;;;;;;;;5.50;5.50;;;;;20.82;29.28;102780.38;5077384;28;46444;-58
2022/01/23 15:14:40;;;;;;;;;5.25;5.00;;;;;20.83;29.12;102776.84;5077450;28;45808;-57
2022/01/23 15:17:06;;;;;;;;;5.50;4.00;;;;;20.82;29.58;102772.47;5077611;28;45261;-58
2022/01/23 15:19:33;;;;;;;;;5.00;5.00;;;;;20.84;29.11;102770.66;5077680;27;45419;-56
2022/01/23 15:21:58;;;;;;;;;5.00;5.00;;;;;20.81;29.59;102774.25;5077368;28;45406;-57